createdAt,value
2022-11-24T00:01:12.656Z,4.24
2022-11-24T00:03:39.459Z,4.22
2022-11-24T00:06:07.823Z,4.20
2022-11-24T00:08:34.666Z,3.81
2022-11-24T00:11:06.053Z,4.25
2022-11-24T00:13:33.482Z,4.16
2022-11-24T00:16:08.051Z,4.17
2022-11-24T00:18:36.043Z,4.05
2022-11-24T00:21:02.584Z,4.06
2022-11-24T00:23:29.310Z,4.01
2022-11-24T00:25:55.995Z,3.96
2022-11-24T00:28:22.590Z,3.87
2022-11-24T00:30:49.173Z,3.75
2022-11-24T00:33:15.763Z,3.93
2022-11-24T00:35:43.589Z,3.92
2022-11-24T00:38:10.247Z,3.94
2022-11-24T00:40:36.794Z,3.86
2022-11-24T00:43:03.369Z,3.80
2022-11-24T00:45:29.983Z,3.71
2022-11-24T00:47:56.534Z,3.85
2022-11-24T00:50:23.225Z,3.78
2022-11-24T00:52:51.157Z,3.87
2022-11-24T00:55:17.645Z,3.79
2022-11-24T00:57:44.209Z,3.85
2022-11-24T01:00:11.309Z,3.78
2022-11-24T01:02:37.904Z,3.67
2022-11-24T01:05:05.262Z,3.72
2022-11-24T01:07:31.950Z,3.28
2022-11-24T01:10:00.199Z,3.72
2022-11-24T01:12:26.915Z,3.61
2022-11-24T01:14:53.449Z,3.27
2022-11-24T01:17:20.224Z,3.56
2022-11-24T01:19:46.735Z,3.33
2022-11-24T01:22:13.557Z,3.17
2022-11-24T01:24:40.122Z,3.48
2022-11-24T01:27:08.062Z,3.28
2022-11-24T01:29:34.661Z,3.32
2022-11-24T01:32:01.235Z,3.42
2022-11-24T01:34:27.731Z,3.48
2022-11-24T01:36:54.358Z,3.56
2022-11-24T01:39:20.874Z,3.53
2022-11-24T01:41:47.403Z,3.50
2022-11-24T01:44:23.251Z,3.34
2022-11-24T01:46:52.975Z,3.51
2022-11-24T01:49:24.605Z,3.22
2022-11-24T01:51:54.158Z,3.56
2022-11-24T01:54:23.915Z,3.63
2022-11-24T01:56:54.562Z,3.25
2022-11-24T01:59:22.623Z,3.63
2022-11-24T02:01:51.421Z,3.74
2022-11-24T02:04:23.777Z,3.77
2022-11-24T02:06:52.569Z,3.78
2022-11-24T02:09:23.820Z,3.88
2022-11-24T02:11:53.266Z,3.97
2022-11-24T02:14:23.632Z,3.77
2022-11-24T02:16:51.534Z,3.94
2022-11-24T02:19:26.484Z,3.93
2022-11-24T02:21:53.221Z,3.95
2022-11-24T02:24:25.135Z,3.93
2022-11-24T02:26:52.928Z,3.95
2022-11-24T02:29:19.586Z,3.95
2022-11-24T02:31:49.393Z,4.00
2022-11-24T02:34:15.966Z,4.03
2022-11-24T02:36:42.493Z,4.10
2022-11-24T02:39:11.007Z,4.11
2022-11-24T02:41:38.207Z,4.14
2022-11-24T02:44:06.296Z,4.16
2022-11-24T02:46:32.868Z,4.16
2022-11-24T02:48:59.449Z,4.15
2022-11-24T02:51:26.089Z,3.94
2022-11-24T02:53:52.579Z,4.24
2022-11-24T02:56:19.193Z,4.24
2022-11-24T02:58:45.699Z,4.25
2022-11-24T03:01:13.643Z,4.26
2022-11-24T03:03:40.241Z,4.20
2022-11-24T03:06:06.774Z,4.22
2022-11-24T03:08:33.323Z,4.16
2022-11-24T03:11:01.039Z,4.13
2022-11-24T03:13:27.583Z,4.08
2022-11-24T03:15:54.160Z,4.07
2022-11-24T03:18:22.270Z,4.07
2022-11-24T03:20:48.936Z,4.11
2022-11-24T03:23:15.430Z,3.83
2022-11-24T03:25:41.987Z,4.08
2022-11-24T03:28:08.491Z,4.11
2022-11-24T03:30:35.047Z,4.11
2022-11-24T03:33:01.570Z,4.13
2022-11-24T03:35:29.405Z,4.13
2022-11-24T03:37:55.897Z,3.43
2022-11-24T03:40:22.487Z,4.25
2022-11-24T03:42:48.961Z,4.28
2022-11-24T03:45:45.669Z,4.23
2022-11-24T03:48:02.271Z,4.33
2022-11-24T03:50:30.201Z,4.37
2022-11-24T03:52:57.033Z,4.41
2022-11-24T03:55:23.549Z,4.44
2022-11-24T03:57:50.124Z,4.49
2022-11-24T04:00:17.607Z,4.58
2022-11-24T04:02:44.372Z,4.57
2022-11-24T04:05:11.034Z,4.59
2022-11-24T04:07:39.220Z,4.61
2022-11-24T04:10:07.080Z,4.34
2022-11-24T04:12:33.636Z,4.70
2022-11-24T04:15:00.162Z,4.71
2022-11-24T04:17:28.048Z,3.92
2022-11-24T04:19:54.576Z,4.68
2022-11-24T04:22:21.125Z,4.68
2022-11-24T04:24:49.002Z,4.72
2022-11-24T04:27:15.582Z,4.70
2022-11-24T04:29:42.084Z,4.69
2022-11-24T04:32:08.670Z,4.73
2022-11-24T04:34:35.569Z,4.73
2022-11-24T04:37:02.499Z,4.78
2022-11-24T04:39:29.080Z,4.84
2022-11-24T04:41:57.086Z,4.51
2022-11-24T04:44:23.601Z,4.68
2022-11-24T04:46:50.273Z,4.93
2022-11-24T04:49:17.106Z,4.99
2022-11-24T04:51:44.144Z,4.92
2022-11-24T04:54:12.290Z,5.01
2022-11-24T04:56:39.377Z,4.90
2022-11-24T04:59:08.688Z,5.18
2022-11-24T05:01:35.471Z,5.18
2022-11-24T05:04:02.092Z,5.22
2022-11-24T05:06:28.717Z,5.26
2022-11-24T05:08:55.324Z,5.29
2022-11-24T05:11:21.955Z,5.33
2022-11-24T05:13:48.455Z,5.37
2022-11-24T05:16:16.445Z,5.42
2022-11-24T05:18:43.006Z,5.47
2022-11-24T05:21:09.646Z,5.50
2022-11-24T05:23:36.147Z,5.50
2022-11-24T05:26:03.204Z,5.52
2022-11-24T05:28:30.257Z,5.55
2022-11-24T05:30:59.566Z,5.56
2022-11-24T05:33:27.832Z,5.58
2022-11-24T05:35:54.689Z,5.48
2022-11-24T05:38:21.286Z,5.69
2022-11-24T05:40:48.387Z,5.73
2022-11-24T05:43:16.392Z,5.10
2022-11-24T05:45:43.086Z,5.58
2022-11-24T05:48:12.315Z,5.78
2022-11-24T05:50:40.544Z,5.83
2022-11-24T05:53:10.006Z,5.85
2022-11-24T05:55:37.140Z,5.89
2022-11-24T05:58:06.016Z,5.66
2022-11-24T06:00:34.674Z,5.93
2022-11-24T06:03:02.062Z,5.95
2022-11-24T06:05:29.840Z,6.00
2022-11-24T06:07:59.010Z,5.87
2022-11-24T06:10:25.812Z,6.04
2022-11-24T06:12:52.764Z,6.08
2022-11-24T06:15:19.776Z,6.12
2022-11-24T06:17:52.988Z,6.07
2022-11-24T06:20:19.749Z,6.18
2022-11-24T06:22:46.538Z,6.20
2022-11-24T06:25:14.499Z,6.23
2022-11-24T06:27:41.048Z,6.26
2022-11-24T06:30:09.206Z,6.28
2022-11-24T06:32:35.722Z,6.36
2022-11-24T06:35:02.472Z,6.37
2022-11-24T06:37:28.985Z,6.35
2022-11-24T06:39:55.609Z,6.37
2022-11-24T06:42:23.497Z,6.39
2022-11-24T06:44:50.130Z,6.35
2022-11-24T06:47:16.717Z,6.42
2022-11-24T06:49:43.311Z,6.43
2022-11-24T06:52:09.777Z,6.53
2022-11-24T06:54:36.667Z,6.54
2022-11-24T06:57:03.759Z,6.54
2022-11-24T06:59:32.208Z,6.24
2022-11-24T07:01:58.710Z,6.59
2022-11-24T07:04:25.288Z,6.59
2022-11-24T07:06:51.798Z,6.64
2022-11-24T07:09:18.369Z,6.69
2022-11-24T07:11:44.880Z,6.68
2022-11-24T07:14:11.457Z,6.68
2022-11-24T07:16:39.881Z,6.71
2022-11-24T07:19:06.610Z,6.72
2022-11-24T07:21:33.120Z,6.73
2022-11-24T07:23:59.664Z,6.76
2022-11-24T07:26:26.618Z,6.78
2022-11-24T07:28:53.207Z,6.81
2022-11-24T07:31:22.029Z,6.88
2022-11-24T07:33:50.530Z,6.89
2022-11-24T07:36:17.393Z,6.90
2022-11-24T07:38:44.083Z,6.94
2022-11-24T07:41:13.143Z,6.83
2022-11-24T07:43:40.264Z,6.98
2022-11-24T07:46:15.299Z,7.02
2022-11-24T07:48:42.102Z,6.81
2022-11-24T07:51:09.974Z,6.89
2022-11-24T07:53:37.021Z,7.07
2022-11-24T07:56:05.111Z,7.08
2022-11-24T07:58:33.412Z,7.12
2022-11-24T08:01:00.475Z,7.15
2022-11-24T08:03:27.406Z,6.84
2022-11-24T08:06:22.358Z,7.16
2022-11-24T08:08:42.493Z,7.00
2022-11-24T08:11:11.631Z,7.18
2022-11-24T08:13:38.823Z,7.21
2022-11-24T08:16:07.280Z,7.24
2022-11-24T08:18:34.253Z,7.31
2022-11-24T08:21:00.821Z,7.40
2022-11-24T08:23:27.843Z,7.43
2022-11-24T08:25:57.090Z,7.53
2022-11-24T08:28:24.266Z,7.55
2022-11-24T08:30:50.889Z,7.52
2022-11-24T08:33:17.521Z,7.60
2022-11-24T08:35:44.032Z,7.60
2022-11-24T08:38:10.608Z,7.74
2022-11-24T08:40:37.248Z,7.69
2022-11-24T08:43:05.100Z,7.71
2022-11-24T08:45:34.287Z,7.65
2022-11-24T08:48:03.657Z,7.82
2022-11-24T08:50:30.147Z,7.87
2022-11-24T08:52:56.715Z,7.94
2022-11-24T08:55:23.201Z,8.01
2022-11-24T08:57:49.752Z,8.04
2022-11-24T09:00:18.174Z,8.07
2022-11-24T09:02:44.734Z,8.11
2022-11-24T09:05:43.320Z,8.17
2022-11-24T09:07:58.216Z,8.21
2022-11-24T09:10:24.746Z,8.26
2022-11-24T09:12:51.285Z,8.32
2022-11-24T09:15:19.117Z,8.39
2022-11-24T09:17:46.236Z,8.28
2022-11-24T09:20:13.019Z,8.49
2022-11-24T09:22:39.592Z,8.56
2022-11-24T09:25:06.692Z,8.63
2022-11-24T09:27:33.461Z,8.68
2022-11-24T09:30:00.045Z,8.73
2022-11-24T09:32:28.858Z,8.75
2022-11-24T09:34:55.338Z,8.71
2022-11-24T09:37:21.962Z,8.75
2022-11-24T09:39:48.481Z,8.65
2022-11-24T09:42:16.690Z,8.84
2022-11-24T09:44:59.150Z,8.89
2022-11-24T09:47:38.949Z,8.77
2022-11-24T09:50:13.368Z,8.94
2022-11-24T09:52:44.753Z,8.51
2022-11-24T09:55:46.383Z,9.06
2022-11-24T09:58:21.243Z,9.12
2022-11-24T10:00:51.973Z,9.14
2022-11-24T10:03:27.267Z,9.17
2022-11-24T10:05:54.260Z,9.19
2022-11-24T10:08:42.970Z,9.29
2022-11-24T10:11:13.588Z,9.34
2022-11-24T10:14:10.092Z,9.41
2022-11-24T10:16:50.080Z,9.45
2022-11-24T10:19:37.038Z,9.56
2022-11-24T10:22:23.457Z,9.66
2022-11-24T10:25:08.640Z,9.67
2022-11-24T10:27:39.918Z,9.60
2022-11-24T10:30:14.083Z,9.87
2022-11-24T10:32:45.087Z,9.92
2022-11-24T10:35:17.500Z,10.09
2022-11-24T10:37:53.765Z,10.30
2022-11-24T10:40:59.038Z,10.44
2022-11-24T10:43:15.621Z,10.72
2022-11-24T10:45:42.125Z,10.89
2022-11-24T10:48:19.442Z,11.03
2022-11-24T10:50:47.502Z,11.21
2022-11-24T10:53:18.400Z,11.33
2022-11-24T10:56:03.036Z,11.43
2022-11-24T10:58:36.020Z,11.38
2022-11-24T11:01:20.951Z,11.41
2022-11-24T11:03:50.658Z,11.35
2022-11-24T11:06:23.081Z,11.41
2022-11-24T11:08:50.357Z,11.55
2022-11-24T11:11:21.661Z,11.41
2022-11-24T11:13:59.782Z,11.46
2022-11-24T11:16:34.615Z,11.51
2022-11-24T11:19:08.857Z,11.29
2022-11-24T11:21:59.965Z,11.32
2022-11-24T11:24:28.326Z,11.27
2022-11-24T11:27:00.078Z,11.40
2022-11-24T11:35:05.690Z,11.65
2022-11-24T11:37:34.177Z,12.06
2022-11-24T11:40:01.363Z,11.95
2022-11-24T11:43:00.769Z,11.92
2022-11-24T11:45:23.874Z,11.93
2022-11-24T11:47:53.885Z,11.73
2022-11-24T11:50:25.494Z,11.74
2022-11-24T11:53:09.203Z,11.87
2022-11-24T11:55:53.536Z,12.05
2022-11-24T11:58:37.669Z,12.07
2022-11-24T12:01:18.400Z,12.25
2022-11-24T12:03:58.962Z,12.16
2022-11-24T12:06:41.266Z,12.11
2022-11-24T12:09:23.845Z,12.15
2022-11-24T12:12:04.129Z,12.36
2022-11-24T12:14:39.492Z,12.35
2022-11-24T12:17:13.347Z,12.39
2022-11-24T12:20:01.799Z,12.41
2022-11-24T12:22:40.103Z,12.37
2022-11-24T12:25:22.734Z,12.61
2022-11-24T12:28:01.888Z,12.62
2022-11-24T12:30:37.802Z,12.50
2022-11-24T12:33:16.908Z,12.49
2022-11-24T12:35:46.337Z,12.47
2022-11-24T12:38:24.909Z,12.67
2022-11-24T12:48:08.333Z,12.52
2022-11-24T12:50:37.900Z,12.67
2022-11-24T12:53:12.079Z,12.76
2022-11-24T12:55:39.379Z,12.68
2022-11-24T12:58:14.331Z,12.76
2022-11-24T13:00:52.830Z,12.76
2022-11-24T13:03:32.805Z,12.89
2022-11-24T13:06:07.305Z,12.94
2022-11-24T13:08:36.516Z,12.89
2022-11-24T13:11:36.575Z,12.89
2022-11-24T13:14:11.469Z,13.12
2022-11-24T13:17:13.418Z,13.12
2022-11-24T13:19:36.975Z,13.33
2022-11-24T13:22:14.406Z,13.33
2022-11-24T13:24:42.222Z,13.56
2022-11-24T13:27:25.969Z,13.59
2022-11-24T13:29:54.342Z,13.67
2022-11-24T13:32:59.527Z,13.64
2022-11-24T13:35:26.408Z,13.67
2022-11-24T13:37:53.155Z,13.76
2022-11-24T13:40:54.257Z,13.89
2022-11-24T13:43:26.704Z,13.96
2022-11-24T13:45:54.587Z,14.10
2022-11-24T13:48:52.633Z,14.08
2022-11-24T13:51:23.973Z,14.00
2022-11-24T13:53:53.351Z,13.94
2022-11-24T13:56:24.896Z,13.98
2022-11-24T13:58:54.985Z,13.82
2022-11-24T14:01:24.917Z,13.79
2022-11-24T14:06:48.479Z,13.27
2022-11-24T14:09:22.482Z,13.17
2022-11-24T14:11:59.017Z,13.09
2022-11-24T14:14:25.837Z,12.97
2022-11-24T14:17:08.385Z,12.79
2022-11-24T14:19:35.086Z,12.72
2022-11-24T14:22:01.623Z,12.63
2022-11-24T14:24:35.433Z,12.59
2022-11-24T14:27:04.901Z,12.70
2022-11-24T14:29:31.421Z,12.73
2022-11-24T14:31:59.587Z,12.77
2022-11-24T14:34:29.576Z,12.70
2022-11-24T14:36:57.298Z,12.71
2022-11-24T14:39:25.782Z,12.68
2022-11-24T14:41:55.878Z,12.63
2022-11-24T14:44:24.952Z,12.42
2022-11-24T14:47:01.783Z,12.47
2022-11-24T14:49:31.317Z,12.31
2022-11-24T14:52:01.852Z,12.29
2022-11-24T14:54:28.969Z,12.23
2022-11-24T14:56:58.400Z,12.16
2022-11-24T14:59:27.416Z,11.99
2022-11-24T15:01:54.017Z,11.85
2022-11-24T15:04:46.177Z,11.69
2022-11-24T15:07:19.196Z,11.43
2022-11-24T15:09:51.611Z,11.40
2022-11-24T15:12:27.071Z,11.23
2022-11-24T15:14:55.551Z,11.09
2022-11-24T15:17:25.169Z,10.71
2022-11-24T15:19:56.453Z,10.14
2022-11-24T15:22:40.495Z,10.55
2022-11-24T15:25:31.503Z,10.38
2022-11-24T15:27:58.123Z,10.26
2022-11-24T15:30:24.834Z,10.13
2022-11-24T15:32:53.077Z,10.03
2022-11-24T15:35:19.904Z,9.78
2022-11-24T15:37:47.980Z,9.80
2022-11-24T15:40:15.017Z,9.68
2022-11-24T15:42:41.723Z,9.61
2022-11-24T15:45:10.381Z,9.49
2022-11-24T15:47:36.966Z,9.19
2022-11-24T15:50:03.897Z,9.28
2022-11-24T15:52:30.546Z,9.16
2022-11-24T15:54:58.801Z,8.99
2022-11-24T15:57:25.677Z,8.97
2022-11-24T15:59:52.273Z,8.88
2022-11-24T16:02:19.149Z,8.77
2022-11-24T16:04:45.628Z,8.64
2022-11-24T16:07:12.538Z,8.46
2022-11-24T16:09:39.627Z,8.31
2022-11-24T16:12:07.965Z,8.18
2022-11-24T16:14:34.854Z,8.06
2022-11-24T16:17:01.957Z,7.99
2022-11-24T16:19:28.643Z,7.61
2022-11-24T16:21:55.235Z,7.75
2022-11-24T16:24:21.808Z,7.63
2022-11-24T16:26:48.372Z,7.56
2022-11-24T16:29:16.195Z,7.30
2022-11-24T16:31:42.832Z,7.38
2022-11-24T16:34:09.402Z,7.31
2022-11-24T16:36:35.972Z,7.26
2022-11-24T16:39:02.488Z,7.16
2022-11-24T16:41:29.045Z,7.03
2022-11-24T16:43:55.671Z,6.97
2022-11-24T16:46:24.612Z,6.82
2022-11-24T16:48:52.737Z,6.59
2022-11-24T16:51:21.595Z,6.63
2022-11-24T16:53:48.807Z,6.43
2022-11-24T16:56:15.399Z,6.53
2022-11-24T16:58:41.969Z,6.44
2022-11-24T17:01:10.757Z,6.35
2022-11-24T17:03:39.185Z,6.22
2022-11-24T17:06:07.827Z,5.95
2022-11-24T17:08:35.857Z,6.07
2022-11-24T17:11:05.607Z,5.74
2022-11-24T17:13:32.544Z,5.99
2022-11-24T17:15:59.131Z,5.87
2022-11-24T17:18:25.830Z,5.80
2022-11-24T17:20:57.340Z,5.82
2022-11-24T17:23:23.899Z,5.76
2022-11-24T17:25:50.401Z,5.67
2022-11-24T17:28:17.171Z,5.76
2022-11-24T17:30:43.709Z,5.63
2022-11-24T17:33:10.324Z,5.58
2022-11-24T17:35:36.941Z,5.50
2022-11-24T17:38:04.935Z,5.21
2022-11-24T17:40:31.424Z,5.29
2022-11-24T17:42:58.390Z,5.35
2022-11-24T17:45:25.120Z,5.26
2022-11-24T17:47:51.772Z,5.22
2022-11-24T17:50:23.925Z,5.21
2022-11-24T17:52:52.527Z,5.11
2022-11-24T17:55:20.435Z,4.98
2022-11-24T17:57:47.058Z,5.15
2022-11-24T18:00:14.803Z,5.10
2022-11-24T18:02:41.798Z,5.03
2022-11-24T18:05:09.020Z,4.76
2022-11-24T18:07:35.864Z,4.83
2022-11-24T18:10:02.658Z,4.95
2022-11-24T18:12:30.594Z,4.90
2022-11-24T18:14:57.341Z,4.88
2022-11-24T18:17:23.913Z,4.82
2022-11-24T18:19:50.593Z,4.72
2022-11-24T18:22:17.654Z,4.81
2022-11-24T18:24:45.863Z,4.63
2022-11-24T18:27:12.453Z,4.73
2022-11-24T18:29:40.297Z,4.50
2022-11-24T18:32:06.900Z,4.64
2022-11-24T18:34:33.882Z,4.49
2022-11-24T18:37:00.705Z,4.63
2022-11-24T18:39:27.368Z,4.64
2022-11-24T18:41:53.943Z,4.43
2022-11-24T18:44:20.510Z,4.27
2022-11-24T18:46:48.754Z,4.36
2022-11-24T18:49:15.269Z,4.26
2022-11-24T18:51:41.826Z,4.20
2022-11-24T18:54:08.589Z,4.17
2022-11-24T18:56:35.142Z,4.02
2022-11-24T18:59:01.667Z,4.11
2022-11-24T19:01:28.655Z,3.24
2022-11-24T19:03:59.003Z,4.06
2022-11-24T19:06:27.675Z,4.05
2022-11-24T19:08:55.338Z,3.97
2022-11-24T19:11:24.286Z,3.85
2022-11-24T19:13:51.247Z,3.74
2022-11-24T19:16:19.543Z,3.96
2022-11-24T19:18:50.371Z,3.90
2022-11-24T19:21:22.213Z,3.82
2022-11-24T19:23:49.020Z,3.59
2022-11-24T19:26:15.616Z,3.79
2022-11-24T19:28:42.153Z,3.77
2022-11-24T19:31:11.824Z,3.79
2022-11-24T19:33:39.517Z,3.74
2022-11-24T19:36:08.352Z,3.48
2022-11-24T19:38:36.782Z,3.54
2022-11-24T19:41:04.945Z,3.66
2022-11-24T19:43:32.205Z,3.70
2022-11-24T19:46:02.468Z,3.58
2022-11-24T19:48:34.014Z,3.61
2022-11-24T19:51:01.049Z,3.40
2022-11-24T19:53:27.709Z,3.52
2022-11-24T19:55:56.173Z,3.50
2022-11-24T19:58:22.687Z,3.47
2022-11-24T20:00:49.256Z,3.34
2022-11-24T20:03:15.780Z,3.39
2022-11-24T20:05:42.324Z,3.36
2022-11-24T20:08:11.349Z,3.40
2022-11-24T20:10:38.239Z,3.32
2022-11-24T20:13:06.088Z,3.31
2022-11-24T20:15:33.553Z,3.26
2022-11-24T20:18:00.229Z,3.21
2022-11-24T20:20:26.820Z,3.19
2022-11-24T20:22:53.571Z,3.17
2022-11-24T20:25:20.227Z,3.17
2022-11-24T20:27:46.743Z,2.86
2022-11-24T20:30:14.868Z,3.08
2022-11-24T20:32:41.417Z,3.13
2022-11-24T20:35:12.320Z,2.95
2022-11-24T20:37:41.617Z,3.02
2022-11-24T20:40:09.644Z,2.99
2022-11-24T20:42:36.207Z,2.96
2022-11-24T20:45:03.138Z,2.81
2022-11-24T20:47:31.234Z,2.93
2022-11-24T20:49:57.794Z,2.91
2022-11-24T20:52:24.763Z,2.88
2022-11-24T20:54:51.247Z,2.64
2022-11-24T20:57:17.827Z,2.75
2022-11-24T20:59:44.455Z,2.67
2022-11-24T21:02:11.488Z,2.66
2022-11-24T21:04:39.751Z,2.59
2022-11-24T21:07:06.369Z,2.61
2022-11-24T21:09:33.002Z,2.55
2022-11-24T21:11:59.544Z,2.49
2022-11-24T21:14:28.202Z,2.47
2022-11-24T21:16:57.813Z,2.43
2022-11-24T21:19:24.362Z,2.39
2022-11-24T21:21:52.293Z,1.85
2022-11-24T21:24:19.238Z,2.35
2022-11-24T21:26:46.395Z,2.35
2022-11-24T21:29:13.875Z,2.32
2022-11-24T21:31:41.296Z,2.32
2022-11-24T21:34:08.700Z,2.30
2022-11-24T21:36:35.614Z,2.29
2022-11-24T21:39:03.992Z,2.28
2022-11-24T21:41:33.151Z,2.24
2022-11-24T21:43:59.885Z,2.21
2022-11-24T21:46:28.824Z,2.17
2022-11-24T21:48:55.362Z,2.10
2022-11-24T21:51:21.951Z,2.17
2022-11-24T21:53:48.492Z,2.16
2022-11-24T21:56:18.284Z,2.14
2022-11-24T21:58:45.770Z,1.81
2022-11-24T22:01:13.072Z,2.02
2022-11-24T22:03:39.822Z,1.77
2022-11-24T22:06:07.106Z,1.99
2022-11-24T22:08:33.622Z,2.00
2022-11-24T22:11:01.109Z,1.93
2022-11-24T22:13:29.039Z,1.78
2022-11-24T22:16:00.040Z,1.93
2022-11-24T22:18:29.443Z,1.88
2022-11-24T22:20:55.923Z,1.84
2022-11-24T22:23:22.505Z,1.63
2022-11-24T22:25:49.020Z,1.90
2022-11-24T22:28:15.548Z,1.90
2022-11-24T22:30:43.646Z,1.61
2022-11-24T22:33:10.279Z,1.80
2022-11-24T22:35:37.185Z,1.95
2022-11-24T22:38:03.719Z,1.98
2022-11-24T22:40:30.254Z,2.04
2022-11-24T22:42:57.832Z,2.08
2022-11-24T22:45:24.370Z,2.15
2022-11-24T22:47:54.946Z,2.03
2022-11-24T22:50:21.687Z,2.11
2022-11-24T22:52:50.379Z,2.21
2022-11-24T22:55:16.898Z,2.17
2022-11-24T22:57:47.951Z,2.13
2022-11-24T23:00:16.105Z,2.13
2022-11-24T23:02:42.761Z,2.12
2022-11-24T23:05:10.723Z,2.13
2022-11-24T23:07:37.275Z,2.09
2022-11-24T23:10:04.129Z,2.07
2022-11-24T23:12:30.623Z,1.91
2022-11-24T23:14:57.204Z,2.04
2022-11-24T23:17:23.757Z,2.01
2022-11-24T23:19:50.337Z,2.03
2022-11-24T23:22:18.166Z,1.94
2022-11-24T23:24:44.822Z,2.11
2022-11-24T23:27:11.597Z,1.98
2022-11-24T23:29:38.157Z,2.21
2022-11-24T23:32:05.260Z,2.24
2022-11-24T23:34:31.930Z,2.23
2022-11-24T23:36:58.441Z,2.23
2022-11-24T23:39:26.402Z,2.24
2022-11-24T23:41:52.892Z,2.27
2022-11-24T23:44:19.776Z,2.24
2022-11-24T23:46:46.377Z,2.27
2022-11-24T23:49:12.916Z,2.29
2022-11-24T23:51:39.410Z,2.38
2022-11-24T23:54:07.626Z,2.34
2022-11-24T23:56:36.312Z,2.38
2022-11-24T23:59:03.936Z,2.48
